Henderson, Michigan
Current Conditions -  °F | °C
As of 3:34 AM on Saturday 01 Nov 2014 (Local Time) from KRNP Reporting Station
Overcast Overcast  
Wind Chill: 21°   Ceiling: 2400
Heat Index: 31°   Visibility: 10mi
Dew Point: 23°   Wind: 14mph
Humidity: 73%   Direction: 360°N
Pressure: 30.25"   Gusts: 23mph
Location:  43.09°N, 84.2°W
Report Text: KRNP 010734Z AUTO 36012G20KT 10SM OVC024 00/M05 A3025 RMK AO2 T10051048
Loading
Personal Weather Stations






























Interactive Weather Map
Tropical Storm Tracking
New forecast layout! Learn more

10-Day Weather Forecast

Advertisements
Track Severe Weather on mobile